createdAt,value
2023-03-19T00:02:49.921Z,70.37
2023-03-19T00:07:57.445Z,70.66
2023-03-19T00:13:06.086Z,70.62
2023-03-19T00:18:15.025Z,71.15
2023-03-19T00:23:23.236Z,71.74
2023-03-19T00:28:31.351Z,72.37
2023-03-19T00:33:40.518Z,73.34
2023-03-19T00:38:48.629Z,73.72
2023-03-19T00:44:00.614Z,73.42
2023-03-19T00:49:08.126Z,73.25
2023-03-19T00:54:16.179Z,73.76
2023-03-19T00:59:25.938Z,74.03
2023-03-19T01:04:33.833Z,74.08
2023-03-19T01:09:41.591Z,73.98
2023-03-19T01:14:49.027Z,73.65
2023-03-19T01:19:57.542Z,73.37
2023-03-19T01:25:06.153Z,73.84
2023-03-19T01:30:15.508Z,74.68
2023-03-19T01:35:23.077Z,75.11
2023-03-19T01:40:32.677Z,75.42
2023-03-19T01:45:42.695Z,76.12
2023-03-19T01:50:54.359Z,76.26
2023-03-19T01:56:08.757Z,75.84
2023-03-19T02:01:17.327Z,75.47
2023-03-19T02:06:25.842Z,75.95
2023-03-19T02:11:34.806Z,75.61
2023-03-19T02:16:42.733Z,75.86
2023-03-19T02:21:51.426Z,76.15
2023-03-19T02:27:00.269Z,76.53
2023-03-19T02:32:09.709Z,76.65
2023-03-19T02:37:21.725Z,76.70
2023-03-19T02:42:31.541Z,76.80
2023-03-19T02:47:39.415Z,76.72
2023-03-19T02:52:47.314Z,76.53
2023-03-19T02:57:55.233Z,76.66
2023-03-19T03:03:03.556Z,77.30
2023-03-19T03:08:11.011Z,77.45
2023-03-19T03:13:19.129Z,77.67
2023-03-19T03:18:27.327Z,77.57
2023-03-19T03:23:34.967Z,77.61
2023-03-19T03:28:43.611Z,77.47
2023-03-19T03:33:50.863Z,76.94
2023-03-19T03:44:17.840Z,77.76
2023-03-19T03:49:26.354Z,77.83
2023-03-19T03:54:34.888Z,78.33
2023-03-19T03:59:43.455Z,78.58
2023-03-19T04:04:51.670Z,78.90
2023-03-19T04:10:00.300Z,78.86
2023-03-19T04:15:11.183Z,78.42
2023-03-19T04:20:18.907Z,78.87
2023-03-19T04:25:26.414Z,79.15
2023-03-19T04:30:35.393Z,78.76
2023-03-19T04:35:45.538Z,78.67
2023-03-19T04:44:16.098Z,78.25
2023-03-19T04:49:24.546Z,78.16
2023-03-19T04:54:32.267Z,78.05
2023-03-19T04:59:39.944Z,77.79
2023-03-19T05:04:47.542Z,77.84
2023-03-19T05:09:55.776Z,77.96
2023-03-19T05:15:03.263Z,78.77
2023-03-19T05:20:13.221Z,79.47
2023-03-19T05:25:20.977Z,79.95
2023-03-19T05:30:28.602Z,80.17
2023-03-19T05:35:36.946Z,80.39
2023-03-19T05:40:44.665Z,79.64
2023-03-19T05:45:54.977Z,79.46
2023-03-19T05:51:02.605Z,79.07
2023-03-19T05:56:11.466Z,78.79
2023-03-19T06:01:19.089Z,78.19
2023-03-19T06:06:27.682Z,78.15
2023-03-19T06:11:36.453Z,77.78
2023-03-19T06:17:11.876Z,77.36
2023-03-19T06:22:19.820Z,76.93
2023-03-19T06:27:27.821Z,76.04
2023-03-19T06:32:35.569Z,75.23
2023-03-19T06:37:43.748Z,74.58
2023-03-19T06:42:52.776Z,73.79
2023-03-19T06:48:00.238Z,73.02
2023-03-19T06:53:08.128Z,72.18
2023-03-19T06:58:16.023Z,71.51
2023-03-19T07:03:23.770Z,70.66
2023-03-19T07:08:31.540Z,70.16
2023-03-19T07:13:39.370Z,68.66
2023-03-19T07:18:46.878Z,67.98
2023-03-19T07:23:54.353Z,67.31
2023-03-19T07:29:00.141Z,66.45
2023-03-19T07:34:08.152Z,64.94
2023-03-19T07:39:16.305Z,64.50
2023-03-19T07:44:23.989Z,64.00
2023-03-19T07:49:33.758Z,63.93
2023-03-19T07:54:41.246Z,63.32
2023-03-19T07:59:48.793Z,62.12
2023-03-19T08:04:57.601Z,61.34
2023-03-19T08:10:05.358Z,61.03
2023-03-19T08:15:14.682Z,60.39
2023-03-19T08:20:22.619Z,58.19
2023-03-19T08:25:32.964Z,58.02
2023-03-19T08:30:41.221Z,57.02
2023-03-19T08:35:49.455Z,56.14
2023-03-19T08:41:02.556Z,54.24
2023-03-19T08:46:11.408Z,53.33
2023-03-19T08:51:19.131Z,52.07
2023-03-19T08:56:26.913Z,51.79
2023-03-19T09:01:35.054Z,52.64
2023-03-19T09:06:42.544Z,51.68
2023-03-19T09:11:51.211Z,51.03
2023-03-19T09:16:59.427Z,50.73
2023-03-19T09:22:07.321Z,48.87
2023-03-19T09:27:14.963Z,48.84
2023-03-19T09:32:22.527Z,48.36
2023-03-19T09:37:30.351Z,47.52
2023-03-19T09:42:54.588Z,47.60
2023-03-19T09:48:14.324Z,47.14
2023-03-19T09:53:33.535Z,46.97
2023-03-19T09:58:41.033Z,47.93
2023-03-19T10:04:01.801Z,47.07
2023-03-19T10:09:34.027Z,47.93
2023-03-19T10:14:57.822Z,47.61
2023-03-19T10:20:11.133Z,46.96
2023-03-19T10:25:24.286Z,46.62
2023-03-19T10:30:35.326Z,46.10
2023-03-19T10:35:47.209Z,46.14
2023-03-19T10:41:07.030Z,45.77
2023-03-19T10:46:17.641Z,45.74
2023-03-19T10:51:27.847Z,45.30
2023-03-19T10:56:37.622Z,45.27
2023-03-19T11:01:47.037Z,44.85
2023-03-19T11:06:56.711Z,44.39
2023-03-19T11:12:17.648Z,43.40
2023-03-19T11:17:27.522Z,42.73
2023-03-19T11:22:38.423Z,41.71
2023-03-19T11:27:46.862Z,41.96
2023-03-19T11:33:37.335Z,42.05
2023-03-19T11:39:01.141Z,40.74
2023-03-19T11:44:17.134Z,41.57
2023-03-19T11:49:41.643Z,41.36
2023-03-19T11:55:05.949Z,39.70
2023-03-19T12:00:26.040Z,39.24
2023-03-19T12:05:40.341Z,39.61
2023-03-19T12:11:00.710Z,39.34
2023-03-19T12:16:17.396Z,38.45
2023-03-19T12:21:32.245Z,37.82
2023-03-19T12:26:54.810Z,38.52
2023-03-19T12:32:13.440Z,38.35
2023-03-19T12:37:29.610Z,38.23
2023-03-19T12:42:42.580Z,38.01
2023-03-19T12:47:52.240Z,37.77
2023-03-19T12:53:03.615Z,37.89
2023-03-19T12:58:20.678Z,38.09
2023-03-19T13:03:36.054Z,38.04
2023-03-19T13:08:49.505Z,37.64
2023-03-19T13:14:03.455Z,37.44
2023-03-19T13:19:23.330Z,37.53
2023-03-19T13:24:33.993Z,37.37
2023-03-19T13:29:58.307Z,37.07
2023-03-19T13:35:29.269Z,37.18
2023-03-19T13:40:46.784Z,37.17
2023-03-19T13:46:05.184Z,37.67
2023-03-19T13:51:29.926Z,37.73
2023-03-19T13:57:08.101Z,37.78
2023-03-19T14:02:50.569Z,37.35
2023-03-19T14:07:58.913Z,37.49
2023-03-19T14:13:10.107Z,37.88
2023-03-19T14:18:22.741Z,37.80
2023-03-19T14:23:41.126Z,37.65
2023-03-19T14:29:07.601Z,37.19
2023-03-19T14:34:26.309Z,37.59
2023-03-19T14:39:40.826Z,37.91
2023-03-19T14:45:21.597Z,37.82
2023-03-19T14:50:56.430Z,37.97
2023-03-19T14:56:12.567Z,37.58
2023-03-19T15:01:20.794Z,37.92
2023-03-19T15:06:32.967Z,37.83
2023-03-19T15:12:07.967Z,38.57
2023-03-19T15:17:24.864Z,38.55
2023-03-19T15:22:36.298Z,38.71
2023-03-19T15:27:44.552Z,39.27
2023-03-19T15:33:07.782Z,39.07
2023-03-19T15:38:19.651Z,39.19
2023-03-19T15:43:29.310Z,39.37
2023-03-19T15:48:44.295Z,39.55
2023-03-19T15:53:52.402Z,39.68
2023-03-19T15:59:01.446Z,39.52
2023-03-19T16:04:14.821Z,39.74
2023-03-19T16:09:28.070Z,40.29
2023-03-19T16:14:42.102Z,40.77
2023-03-19T16:19:56.597Z,41.03
2023-03-19T16:25:08.183Z,41.30
2023-03-19T16:30:23.418Z,41.51
2023-03-19T16:35:34.157Z,42.18
2023-03-19T16:40:49.959Z,42.54
2023-03-19T16:46:11.051Z,42.81
2023-03-19T16:51:21.242Z,43.34
2023-03-19T16:56:29.510Z,43.77
2023-03-19T17:01:37.616Z,43.75
2023-03-19T17:06:45.717Z,44.14
2023-03-19T17:11:54.157Z,44.24
2023-03-19T17:17:03.080Z,45.02
2023-03-19T17:22:13.714Z,46.09
2023-03-19T17:27:21.480Z,46.26
2023-03-19T17:32:30.045Z,46.39
2023-03-19T17:37:38.439Z,47.35
2023-03-19T17:42:46.852Z,48.24
2023-03-19T17:47:56.921Z,49.07
2023-03-19T17:53:04.444Z,48.48
2023-03-19T17:58:18.659Z,48.56
2023-03-19T18:03:29.017Z,49.68
2023-03-19T18:08:36.672Z,50.10
2023-03-19T18:13:44.906Z,51.07
2023-03-19T18:28:40.939Z,52.38
2023-03-19T18:33:52.691Z,53.06
2023-03-19T18:39:01.069Z,53.06
2023-03-19T18:44:09.079Z,53.49
2023-03-19T18:49:24.099Z,54.07
2023-03-19T18:54:32.426Z,54.30
2023-03-19T18:59:40.434Z,54.85
2023-03-19T19:04:48.129Z,55.49
2023-03-19T19:09:55.620Z,55.82
2023-03-19T19:15:08.879Z,56.40
2023-03-19T19:20:20.775Z,57.01
2023-03-19T19:25:30.337Z,57.77
2023-03-19T19:30:38.586Z,58.25
2023-03-19T19:35:46.768Z,58.67
2023-03-19T19:40:56.202Z,58.93
2023-03-19T19:46:04.019Z,59.34
2023-03-19T19:51:18.649Z,60.02
2023-03-19T19:56:29.441Z,60.94
2023-03-19T20:01:37.277Z,61.32
2023-03-19T20:06:44.782Z,61.80
2023-03-19T20:11:53.240Z,62.46
2023-03-19T20:17:01.454Z,62.94
2023-03-19T20:22:09.500Z,63.89
2023-03-19T20:27:21.922Z,64.30
2023-03-19T20:32:34.153Z,64.28
2023-03-19T20:37:41.818Z,64.30
2023-03-19T20:42:51.886Z,64.82
2023-03-19T20:47:59.386Z,64.78
2023-03-19T20:53:06.944Z,65.20
2023-03-19T20:58:21.039Z,65.47
2023-03-19T21:03:30.600Z,65.23
2023-03-19T21:08:40.939Z,65.56
2023-03-19T21:16:52.460Z,66.24
2023-03-19T21:22:00.343Z,66.85
2023-03-19T21:27:10.464Z,66.81
2023-03-19T21:32:20.221Z,67.73
2023-03-19T21:37:28.047Z,68.07
2023-03-19T21:42:38.364Z,67.95
2023-03-19T21:47:46.688Z,68.46
2023-03-19T21:53:00.688Z,68.64
2023-03-19T21:58:13.685Z,68.45
2023-03-19T22:03:22.769Z,68.67
2023-03-19T22:08:30.877Z,68.39
2023-03-19T22:13:39.079Z,68.61
2023-03-19T22:18:46.777Z,68.89
2023-03-19T22:23:55.106Z,69.27
2023-03-19T22:29:05.200Z,69.22
2023-03-19T22:34:17.001Z,69.47
2023-03-19T22:44:31.421Z,69.00
2023-03-19T22:49:38.914Z,69.26
2023-03-19T22:54:47.114Z,69.25
2023-03-19T22:59:54.306Z,69.47
2023-03-19T23:05:00.140Z,69.13
2023-03-19T23:10:17.972Z,69.65
2023-03-19T23:15:28.717Z,69.41
2023-03-19T23:20:36.108Z,69.42
2023-03-19T23:25:44.593Z,69.89
2023-03-19T23:30:53.969Z,69.40
2023-03-19T23:36:02.825Z,69.48
2023-03-19T23:46:06.684Z,69.62
2023-03-19T23:51:17.176Z,70.00
2023-03-19T23:56:28.292Z,70.64
